createdAt,value
2022-10-22T00:00:39.277Z,66.20
2022-10-22T00:03:06.291Z,66.60
2022-10-22T00:05:33.182Z,66.30
2022-10-22T00:07:59.976Z,66.30
2022-10-22T00:10:26.894Z,66.20
2022-10-22T00:12:53.758Z,66.30
2022-10-22T00:15:20.717Z,66.20
2022-10-22T00:17:49.590Z,66.20
2022-10-22T00:20:16.591Z,66.20
2022-10-22T00:22:43.499Z,66.10
2022-10-22T00:25:10.364Z,66.30
2022-10-22T00:27:37.313Z,66.20
2022-10-22T00:30:04.625Z,66.30
2022-10-22T00:32:31.501Z,66.30
2022-10-22T00:34:58.345Z,66.20
2022-10-22T00:37:25.333Z,66.30
2022-10-22T00:39:52.179Z,66.40
2022-10-22T00:42:22.790Z,66.30
2022-10-22T00:45:15.860Z,66.30
2022-10-22T00:48:08.996Z,66.10
2022-10-22T00:50:43.920Z,66.30
2022-10-22T00:53:14.853Z,66.40
2022-10-22T00:55:43.957Z,66.20
2022-10-22T00:58:12.140Z,66.40
2022-10-22T01:00:39.317Z,66.40
2022-10-22T01:03:06.826Z,66.40
2022-10-22T01:05:43.366Z,66.50
2022-10-22T01:08:25.416Z,66.60
2022-10-22T01:11:10.745Z,66.40
2022-10-22T01:13:49.652Z,66.40
2022-10-22T01:16:31.527Z,66.50
2022-10-22T01:19:24.730Z,66.40
2022-10-22T01:22:04.148Z,66.40
2022-10-22T01:24:53.493Z,66.30
2022-10-22T01:27:47.733Z,66.30
2022-10-22T01:30:15.896Z,66.40
2022-10-22T01:33:04.993Z,67.10
2022-10-22T01:35:36.924Z,66.20
2022-10-22T01:38:08.850Z,66.50
2022-10-22T01:40:36.571Z,66.40
2022-10-22T01:43:07.020Z,66.40
2022-10-22T01:45:37.464Z,66.40
2022-10-22T01:48:07.529Z,66.30
2022-10-22T01:50:43.325Z,66.10
2022-10-22T01:54:14.920Z,66.80
2022-10-22T01:57:18.014Z,65.80
2022-10-22T02:00:23.788Z,65.80
2022-10-22T02:03:05.977Z,65.90
2022-10-22T02:05:47.943Z,65.90
2022-10-22T02:08:35.834Z,66.00
2022-10-22T02:11:04.364Z,65.80
2022-10-22T02:13:37.578Z,66.00
2022-10-22T02:16:08.051Z,65.80
2022-10-22T02:18:39.484Z,65.90
2022-10-22T02:23:39.463Z,65.60
2022-10-22T02:26:22.096Z,65.70
2022-10-22T02:29:13.650Z,65.80
2022-10-22T02:31:44.788Z,65.90
2022-10-22T02:34:17.267Z,65.70
2022-10-22T02:36:48.096Z,66.60
2022-10-22T02:39:19.216Z,65.80
2022-10-22T02:41:46.011Z,65.70
2022-10-22T02:44:12.816Z,65.80
2022-10-22T02:46:41.014Z,65.80
2022-10-22T02:49:07.935Z,65.70
2022-10-22T02:51:34.811Z,65.80
2022-10-22T02:54:01.835Z,65.70
2022-10-22T02:56:28.646Z,65.60
2022-10-22T02:58:55.686Z,65.80
2022-10-22T03:01:22.734Z,65.60
2022-10-22T03:03:50.014Z,65.70
2022-10-22T03:06:17.670Z,65.40
2022-10-22T03:08:44.637Z,65.70
2022-10-22T03:11:11.518Z,65.30
2022-10-22T03:13:38.401Z,65.40
2022-10-22T03:16:05.632Z,65.40
2022-10-22T03:18:32.502Z,65.30
2022-10-22T03:21:12.619Z,66.20
2022-10-22T03:23:42.178Z,65.50
2022-10-22T03:26:10.212Z,65.50
2022-10-22T03:28:38.209Z,65.30
2022-10-22T03:31:05.221Z,65.40
2022-10-22T03:33:32.071Z,65.20
2022-10-22T03:36:00.510Z,65.20
2022-10-22T03:38:27.412Z,65.30
2022-10-22T03:40:54.223Z,65.20
2022-10-22T03:43:21.156Z,65.50
2022-10-22T03:45:48.028Z,65.30
2022-10-22T03:48:14.877Z,65.30
2022-10-22T03:50:41.809Z,65.50
2022-10-22T03:53:10.620Z,65.10
2022-10-22T03:55:38.350Z,65.10
2022-10-22T03:58:05.662Z,65.30
2022-10-22T04:00:34.417Z,65.60
2022-10-22T04:03:01.456Z,65.10
2022-10-22T04:05:28.326Z,65.40
2022-10-22T04:07:55.195Z,64.90
2022-10-22T04:10:22.056Z,65.10
2022-10-22T04:12:48.984Z,65.10
2022-10-22T04:15:16.271Z,65.60
2022-10-22T04:17:43.346Z,65.50
2022-10-22T04:20:11.071Z,64.90
2022-10-22T04:22:38.031Z,64.50
2022-10-22T04:25:05.517Z,64.80
2022-10-22T04:27:33.451Z,64.70
2022-10-22T04:30:00.416Z,64.40
2022-10-22T04:32:28.117Z,64.60
2022-10-22T04:34:55.005Z,65.20
2022-10-22T04:37:22.271Z,64.90
2022-10-22T04:39:49.357Z,64.90
2022-10-22T04:42:16.326Z,64.90
2022-10-22T04:44:43.193Z,64.70
2022-10-22T04:47:10.044Z,65.00
2022-10-22T04:49:36.982Z,64.80
2022-10-22T04:52:03.855Z,64.70
2022-10-22T04:54:33.045Z,65.20
2022-10-22T04:57:00.448Z,64.70
2022-10-22T04:59:27.368Z,64.60
2022-10-22T05:01:54.363Z,64.70
2022-10-22T05:04:21.203Z,65.20
2022-10-22T05:06:48.094Z,64.80
2022-10-22T05:09:18.032Z,65.40
2022-10-22T05:11:48.591Z,64.60
2022-10-22T05:14:18.434Z,64.60
2022-10-22T05:16:48.230Z,64.80
2022-10-22T05:19:24.290Z,64.70
2022-10-22T05:21:53.410Z,64.40
2022-10-22T05:24:20.905Z,64.70
2022-10-22T05:26:51.909Z,64.60
2022-10-22T05:29:19.606Z,64.50
2022-10-22T05:31:46.499Z,64.40
2022-10-22T05:34:13.634Z,64.40
2022-10-22T05:36:40.746Z,64.60
2022-10-22T05:39:15.233Z,64.50
2022-10-22T05:41:42.030Z,64.00
2022-10-22T05:44:12.162Z,64.50
2022-10-22T05:46:39.269Z,64.30
2022-10-22T05:49:07.365Z,64.20
2022-10-22T05:51:36.355Z,64.70
2022-10-22T05:54:05.947Z,64.40
2022-10-22T05:56:33.537Z,64.10
2022-10-22T06:01:35.448Z,64.60
2022-10-22T06:04:05.546Z,64.60
2022-10-22T06:06:47.507Z,64.30
2022-10-22T06:09:22.295Z,64.40
2022-10-22T06:11:49.881Z,64.20
2022-10-22T06:14:18.157Z,64.60
2022-10-22T06:16:45.089Z,64.20
2022-10-22T06:19:13.552Z,64.20
2022-10-22T06:21:40.694Z,63.90
2022-10-22T06:24:07.903Z,63.90
2022-10-22T06:26:34.736Z,64.40
2022-10-22T06:29:01.969Z,65.20
2022-10-22T06:31:29.737Z,65.60
2022-10-22T06:33:57.369Z,64.30
2022-10-22T06:36:24.783Z,65.30
2022-10-22T06:38:53.658Z,64.70
2022-10-22T06:41:22.957Z,64.00
2022-10-22T06:43:54.184Z,63.80
2022-10-22T06:46:22.071Z,63.70
2022-10-22T06:48:54.343Z,65.10
2022-10-22T06:51:21.541Z,64.20
2022-10-22T06:53:49.262Z,64.60
2022-10-22T06:56:18.899Z,65.00
2022-10-22T06:58:53.377Z,63.80
2022-10-22T07:01:23.590Z,63.60
2022-10-22T07:03:51.841Z,64.00
2022-10-22T07:06:19.462Z,63.90
2022-10-22T07:08:46.373Z,64.40
2022-10-22T07:11:35.311Z,65.50
2022-10-22T07:14:02.157Z,63.90
2022-10-22T07:16:32.241Z,63.80
2022-10-22T07:19:01.696Z,65.00
2022-10-22T07:21:29.576Z,64.40
2022-10-22T07:23:56.750Z,63.50
2022-10-22T07:26:25.452Z,64.20
2022-10-22T07:28:52.737Z,63.60
2022-10-22T07:31:19.901Z,64.10
2022-10-22T07:33:46.974Z,64.00
2022-10-22T07:36:17.550Z,64.00
2022-10-22T07:38:49.947Z,63.70
2022-10-22T07:41:17.522Z,64.00
2022-10-22T07:43:45.354Z,64.10
2022-10-22T07:46:12.536Z,63.80
2022-10-22T07:48:39.487Z,63.70
2022-10-22T07:51:07.153Z,63.50
2022-10-22T07:53:34.422Z,64.00
2022-10-22T07:56:01.636Z,64.10
2022-10-22T07:58:28.934Z,63.80
2022-10-22T08:00:57.529Z,64.70
2022-10-22T08:03:24.673Z,64.20
2022-10-22T08:05:52.294Z,64.20
2022-10-22T08:08:19.620Z,64.00
2022-10-22T08:10:48.347Z,64.50
2022-10-22T08:13:15.414Z,65.10
2022-10-22T08:18:14.938Z,64.20
2022-10-22T08:20:42.623Z,64.40
2022-10-22T08:23:10.139Z,64.00
2022-10-22T08:25:37.864Z,63.60
2022-10-22T08:28:04.885Z,64.30
2022-10-22T08:30:33.975Z,64.40
2022-10-22T08:33:01.160Z,64.30
2022-10-22T08:35:28.376Z,63.70
2022-10-22T08:37:55.234Z,64.00
2022-10-22T08:40:28.075Z,64.70
2022-10-22T08:42:57.855Z,63.80
2022-10-22T08:45:39.842Z,64.00
2022-10-22T08:48:06.840Z,64.50
2022-10-22T08:50:41.062Z,64.10
2022-10-22T08:53:41.637Z,64.30
2022-10-22T08:56:08.510Z,63.60
2022-10-22T08:58:42.314Z,64.30
2022-10-22T09:01:21.078Z,64.30
2022-10-22T09:04:01.202Z,65.60
2022-10-22T09:06:31.685Z,65.80
2022-10-22T09:09:00.370Z,66.10
2022-10-22T09:11:39.372Z,66.30
2022-10-22T09:14:09.190Z,65.40
2022-10-22T09:16:36.193Z,66.00
2022-10-22T09:19:38.486Z,66.40
2022-10-22T09:22:20.314Z,65.50
2022-10-22T09:24:52.128Z,64.20
2022-10-22T09:27:27.408Z,63.60
2022-10-22T09:29:54.393Z,63.40
2022-10-22T09:32:21.336Z,63.10
2022-10-22T09:34:50.078Z,63.30
2022-10-22T09:37:19.563Z,63.90
2022-10-22T09:39:48.549Z,64.60
2022-10-22T09:42:17.622Z,64.00
2022-10-22T09:44:50.231Z,63.90
2022-10-22T09:47:43.405Z,63.30
2022-10-22T09:50:28.691Z,63.70
2022-10-22T09:53:14.943Z,64.00
2022-10-22T09:55:43.326Z,64.00
2022-10-22T09:58:14.061Z,64.20
2022-10-22T10:00:44.056Z,64.90
2022-10-22T10:03:23.872Z,64.40
2022-10-22T10:06:01.403Z,64.90
2022-10-22T10:08:32.013Z,65.60
2022-10-22T10:11:14.548Z,65.00
2022-10-22T10:13:53.184Z,64.80
2022-10-22T10:16:38.731Z,64.70
2022-10-22T10:19:42.039Z,64.90
2022-10-22T10:22:23.083Z,64.70
2022-10-22T10:25:27.488Z,64.40
2022-10-22T10:28:09.232Z,63.90
2022-10-22T10:30:42.502Z,64.30
2022-10-22T10:33:19.443Z,64.30
2022-10-22T10:35:49.427Z,64.20
2022-10-22T10:38:39.550Z,64.70
2022-10-22T10:41:44.051Z,64.80
2022-10-22T10:44:31.751Z,64.10
2022-10-22T10:47:26.043Z,64.60
2022-10-22T10:50:02.372Z,64.10
2022-10-22T10:52:56.372Z,64.60
2022-10-22T10:55:30.811Z,64.50
2022-10-22T10:58:25.674Z,64.40
2022-10-22T11:01:11.451Z,64.40
2022-10-22T11:03:59.949Z,64.30
2022-10-22T11:06:28.295Z,64.60
2022-10-22T11:09:04.097Z,64.90
2022-10-22T11:11:41.750Z,64.50
2022-10-22T11:14:19.936Z,64.40
2022-10-22T11:17:10.698Z,64.40
2022-10-22T11:19:53.833Z,63.90
2022-10-22T11:22:44.476Z,64.20
2022-10-22T11:25:24.559Z,63.00
2022-10-22T11:28:07.859Z,63.00
2022-10-22T11:30:39.179Z,63.20
2022-10-22T11:33:11.606Z,63.00
2022-10-22T11:35:42.590Z,63.30
2022-10-22T11:38:15.080Z,62.90
2022-10-22T11:41:01.853Z,62.80
2022-10-22T11:43:33.055Z,62.10
2022-10-22T11:46:14.951Z,62.40
2022-10-22T11:48:42.236Z,62.70
2022-10-22T11:51:38.296Z,63.50
2022-10-22T11:54:30.183Z,62.20
2022-10-22T11:57:15.344Z,61.70
2022-10-22T11:59:59.187Z,61.90
2022-10-22T12:02:40.224Z,62.30
2022-10-22T12:05:22.899Z,62.90
2022-10-22T12:08:14.788Z,62.50
2022-10-22T12:11:11.874Z,62.30
2022-10-22T12:13:58.749Z,61.50
2022-10-22T12:16:56.061Z,61.90
2022-10-22T12:19:23.366Z,62.70
2022-10-22T12:22:20.818Z,62.00
2022-10-22T12:24:51.861Z,62.90
2022-10-22T12:27:23.479Z,62.80
2022-10-22T12:29:55.891Z,62.70
2022-10-22T12:32:23.906Z,62.80
2022-10-22T12:34:52.311Z,62.80
2022-10-22T12:37:20.202Z,62.60
2022-10-22T12:39:47.330Z,62.00
2022-10-22T12:42:16.951Z,62.50
2022-10-22T12:44:45.149Z,62.30
2022-10-22T12:47:18.902Z,62.60
2022-10-22T12:49:50.691Z,61.80
2022-10-22T12:52:21.442Z,61.90
2022-10-22T12:54:52.430Z,62.00
2022-10-22T12:57:20.987Z,62.20
2022-10-22T12:59:51.101Z,62.20
2022-10-22T13:02:17.935Z,62.80
2022-10-22T13:05:15.154Z,63.10
2022-10-22T13:07:45.068Z,63.70
2022-10-22T13:10:25.105Z,64.20
2022-10-22T13:12:56.001Z,63.70
2022-10-22T13:15:31.696Z,63.40
2022-10-22T13:18:17.702Z,63.50
2022-10-22T13:21:03.139Z,63.70
2022-10-22T13:23:32.668Z,64.00
2022-10-22T13:26:16.527Z,64.40
2022-10-22T13:28:50.340Z,63.70
2022-10-22T13:31:25.276Z,62.70
2022-10-22T13:33:56.175Z,63.10
2022-10-22T13:36:23.856Z,63.10
2022-10-22T13:38:51.237Z,63.30
2022-10-22T13:41:26.586Z,62.80
2022-10-22T13:43:54.498Z,62.70
2022-10-22T13:46:22.460Z,62.60
2022-10-22T13:48:52.846Z,62.50
2022-10-22T13:51:33.426Z,62.40
2022-10-22T13:54:00.985Z,62.20
2022-10-22T13:56:27.774Z,62.50
2022-10-22T13:58:54.666Z,62.10
2022-10-22T14:01:24.839Z,62.00
2022-10-22T14:03:54.675Z,62.20
2022-10-22T14:06:22.891Z,61.90
2022-10-22T14:08:56.206Z,62.00
2022-10-22T14:11:23.204Z,61.60
2022-10-22T14:13:50.213Z,61.70
2022-10-22T14:16:20.801Z,61.80
2022-10-22T14:18:48.799Z,61.90
2022-10-22T14:21:16.786Z,61.90
2022-10-22T14:23:45.931Z,62.00
2022-10-22T14:26:23.720Z,61.80
2022-10-22T14:29:11.954Z,62.50
2022-10-22T14:34:13.350Z,62.30
2022-10-22T14:36:40.343Z,62.40
2022-10-22T14:39:07.217Z,62.20
2022-10-22T14:41:34.316Z,62.30
2022-10-22T14:44:01.747Z,62.30
2022-10-22T14:46:28.728Z,62.50
2022-10-22T14:48:55.545Z,62.40
2022-10-22T14:51:23.222Z,62.50
2022-10-22T14:53:50.372Z,62.40
2022-10-22T14:56:21.474Z,62.30
2022-10-22T14:58:48.967Z,62.40
2022-10-22T15:01:16.089Z,62.40
2022-10-22T15:03:43.232Z,62.60
2022-10-22T15:06:10.284Z,62.50
2022-10-22T15:08:37.285Z,62.60
2022-10-22T15:11:10.910Z,62.80
2022-10-22T15:13:37.973Z,62.70
2022-10-22T15:16:07.064Z,62.80
2022-10-22T15:18:34.064Z,62.90
2022-10-22T15:21:04.360Z,62.90
2022-10-22T15:23:31.675Z,63.00
2022-10-22T15:25:58.475Z,62.90
2022-10-22T15:28:26.150Z,63.00
2022-10-22T15:30:57.449Z,63.00
2022-10-22T15:33:25.284Z,63.10
2022-10-22T15:35:52.550Z,63.20
2022-10-22T15:38:20.166Z,63.20
2022-10-22T15:40:46.984Z,63.20
2022-10-22T15:43:14.393Z,63.50
2022-10-22T15:45:41.316Z,63.50
2022-10-22T15:48:09.095Z,63.50
2022-10-22T15:50:38.710Z,63.50
2022-10-22T15:53:05.951Z,63.50
2022-10-22T15:55:32.927Z,63.40
2022-10-22T15:58:01.922Z,63.50
2022-10-22T16:00:32.222Z,63.80
2022-10-22T16:02:59.132Z,64.10
2022-10-22T16:05:27.773Z,63.90
2022-10-22T16:07:56.515Z,64.10
2022-10-22T16:10:24.406Z,64.00
2022-10-22T16:12:51.776Z,63.90
2022-10-22T16:15:18.689Z,63.70
2022-10-22T16:17:45.520Z,63.70
2022-10-22T16:22:40.582Z,63.70
2022-10-22T16:25:08.165Z,63.90
2022-10-22T16:27:35.027Z,64.00
2022-10-22T16:30:02.194Z,64.10
2022-10-22T16:32:29.122Z,64.20
2022-10-22T16:34:55.948Z,64.20
2022-10-22T16:37:22.887Z,64.30
2022-10-22T16:39:49.862Z,64.50
2022-10-22T16:42:17.200Z,64.50
2022-10-22T16:44:44.229Z,64.50
2022-10-22T16:47:11.189Z,64.40
2022-10-22T16:49:38.056Z,64.40
2022-10-22T16:52:05.155Z,65.20
2022-10-22T16:54:32.013Z,64.40
2022-10-22T16:56:58.959Z,64.30
2022-10-22T16:59:25.784Z,64.30
2022-10-22T17:01:52.700Z,64.30
2022-10-22T17:04:19.799Z,64.20
2022-10-22T17:06:46.646Z,64.20
2022-10-22T17:09:14.138Z,64.10
2022-10-22T17:11:42.624Z,64.10
2022-10-22T17:14:11.254Z,64.10
2022-10-22T17:16:38.352Z,64.10
2022-10-22T17:19:05.521Z,64.20
2022-10-22T17:21:33.749Z,64.20
2022-10-22T17:24:00.607Z,64.20
2022-10-22T17:26:27.736Z,64.20
2022-10-22T17:28:55.186Z,64.30
2022-10-22T17:31:24.785Z,64.40
2022-10-22T17:33:55.979Z,64.40
2022-10-22T17:36:24.164Z,64.40
2022-10-22T17:38:53.890Z,64.30
2022-10-22T17:41:25.605Z,64.30
2022-10-22T17:43:52.771Z,64.40
2022-10-22T17:46:21.937Z,64.30
2022-10-22T17:48:50.580Z,64.30
2022-10-22T17:51:18.854Z,64.40
2022-10-22T17:53:46.641Z,64.40
2022-10-22T17:56:15.572Z,65.10
2022-10-22T17:58:42.616Z,64.40
2022-10-22T18:01:25.054Z,64.50
2022-10-22T18:03:53.623Z,64.50
2022-10-22T18:06:21.469Z,65.30
2022-10-22T18:08:48.727Z,64.50
2022-10-22T18:11:21.477Z,64.70
2022-10-22T18:13:53.166Z,64.60
2022-10-22T18:16:20.650Z,64.70
2022-10-22T18:18:49.100Z,64.70
2022-10-22T18:21:17.290Z,64.70
2022-10-22T18:23:45.046Z,64.70
2022-10-22T18:26:12.319Z,64.70
2022-10-22T18:28:39.256Z,64.60
2022-10-22T18:31:08.388Z,64.60
2022-10-22T18:33:36.805Z,64.50
2022-10-22T18:36:09.234Z,64.50
2022-10-22T18:38:38.295Z,64.50
2022-10-22T18:41:10.014Z,64.60
2022-10-22T18:43:37.106Z,64.60
2022-10-22T18:46:07.195Z,64.60
2022-10-22T18:48:37.734Z,64.40
2022-10-22T18:51:07.953Z,64.40
2022-10-22T18:53:36.482Z,64.30
2022-10-22T18:56:08.737Z,64.20
2022-10-22T18:58:45.119Z,64.30
2022-10-22T19:01:19.201Z,64.20
2022-10-22T19:03:46.706Z,64.10
2022-10-22T19:06:15.237Z,64.10
2022-10-22T19:08:42.628Z,64.20
2022-10-22T19:11:12.330Z,64.30
2022-10-22T19:13:39.808Z,64.50
2022-10-22T19:16:08.377Z,64.40
2022-10-22T19:18:36.824Z,64.60
2022-10-22T19:21:04.263Z,64.50
2022-10-22T19:23:31.724Z,64.40
2022-10-22T19:26:01.821Z,64.50
2022-10-22T19:28:28.875Z,64.50
2022-10-22T19:30:55.888Z,64.50
2022-10-22T19:33:23.039Z,64.50
2022-10-22T19:35:49.999Z,64.40
2022-10-22T19:38:16.869Z,64.60
2022-10-22T19:40:43.788Z,64.50
2022-10-22T19:43:11.507Z,64.60
2022-10-22T19:45:44.394Z,64.60
2022-10-22T19:48:11.570Z,64.50
2022-10-22T19:50:38.534Z,64.60
2022-10-22T19:53:05.478Z,64.60
2022-10-22T19:55:32.341Z,64.10
2022-10-22T19:57:59.125Z,63.80
2022-10-22T20:00:26.288Z,63.70
2022-10-22T20:02:53.207Z,63.90
2022-10-22T20:05:20.147Z,63.80
2022-10-22T20:07:47.087Z,63.80
2022-10-22T20:10:14.034Z,63.80
2022-10-22T20:12:40.911Z,63.80
2022-10-22T20:15:08.916Z,63.50
2022-10-22T20:17:35.866Z,63.50
2022-10-22T20:20:02.790Z,63.50
2022-10-22T20:22:29.714Z,63.50
2022-10-22T20:24:56.579Z,63.60
2022-10-22T20:27:23.560Z,63.70
2022-10-22T20:29:50.484Z,63.70
2022-10-22T20:32:17.540Z,64.00
2022-10-22T20:34:44.556Z,63.90
2022-10-22T20:37:11.443Z,63.90
2022-10-22T20:39:38.326Z,64.10
2022-10-22T20:42:05.327Z,64.20
2022-10-22T20:44:32.214Z,64.10
2022-10-22T20:46:59.144Z,64.20
2022-10-22T20:49:26.819Z,64.10
2022-10-22T20:51:53.828Z,64.00
2022-10-22T20:54:20.717Z,64.10
2022-10-22T20:56:48.121Z,64.20
2022-10-22T20:59:15.737Z,64.30
2022-10-22T21:01:50.854Z,64.20
2022-10-22T21:04:19.833Z,64.20
2022-10-22T21:06:48.661Z,64.20
2022-10-22T21:09:15.741Z,64.30
2022-10-22T21:11:43.949Z,64.50
2022-10-22T21:14:12.608Z,64.50
2022-10-22T21:16:49.321Z,64.70
2022-10-22T21:19:17.323Z,64.60
2022-10-22T21:21:44.146Z,64.50
2022-10-22T21:24:11.356Z,64.50
2022-10-22T21:26:39.052Z,64.70
2022-10-22T21:29:06.084Z,64.60
2022-10-22T21:31:33.002Z,64.70
2022-10-22T21:33:59.817Z,64.70
2022-10-22T21:36:26.812Z,64.80
2022-10-22T21:38:54.241Z,64.80
2022-10-22T21:41:23.616Z,64.80
2022-10-22T21:43:51.958Z,64.80
2022-10-22T21:46:21.069Z,64.90
2022-10-22T21:48:52.863Z,64.70
2022-10-22T21:51:20.709Z,64.80
2022-10-22T21:53:48.068Z,64.70
2022-10-22T21:56:17.678Z,64.70
2022-10-22T21:58:44.648Z,64.80
2022-10-22T22:01:12.379Z,64.90
2022-10-22T22:03:42.753Z,64.90
2022-10-22T22:06:09.799Z,64.80
2022-10-22T22:08:36.966Z,65.70
2022-10-22T22:11:24.485Z,64.90
2022-10-22T22:13:52.969Z,64.90
2022-10-22T22:16:29.161Z,65.00
2022-10-22T22:18:58.670Z,65.00
2022-10-22T22:21:25.793Z,65.20
2022-10-22T22:23:52.822Z,65.00
2022-10-22T22:26:25.430Z,65.10
2022-10-22T22:28:56.264Z,65.20
2022-10-22T22:31:29.425Z,65.20
2022-10-22T22:34:12.794Z,65.00
2022-10-22T22:36:42.081Z,65.60
2022-10-22T22:39:12.986Z,65.10
2022-10-22T22:41:40.946Z,65.10
2022-10-22T22:44:07.915Z,65.20
2022-10-22T22:46:35.560Z,65.10
2022-10-22T22:49:02.441Z,65.10
2022-10-22T22:51:29.403Z,65.10
2022-10-22T22:53:58.018Z,65.20
2022-10-22T22:56:27.682Z,65.20
2022-10-22T22:58:55.438Z,65.10
2022-10-22T23:01:23.656Z,65.00
2022-10-22T23:03:59.112Z,65.30
2022-10-22T23:06:32.233Z,65.10
2022-10-22T23:08:59.618Z,65.20
2022-10-22T23:11:28.001Z,65.20
2022-10-22T23:14:00.807Z,65.20
2022-10-22T23:16:30.427Z,65.30
2022-10-22T23:18:58.303Z,65.30
2022-10-22T23:21:31.037Z,65.30
2022-10-22T23:24:01.072Z,65.40
2022-10-22T23:26:34.313Z,65.30
2022-10-22T23:29:06.178Z,65.30
2022-10-22T23:31:33.460Z,65.50
2022-10-22T23:34:00.654Z,65.50
2022-10-22T23:36:28.315Z,65.40
2022-10-22T23:38:55.761Z,65.40
2022-10-22T23:41:22.778Z,65.60
2022-10-22T23:43:50.604Z,65.60
2022-10-22T23:46:17.445Z,65.60
2022-10-22T23:48:44.307Z,65.70
2022-10-22T23:51:13.879Z,65.70
2022-10-22T23:53:41.996Z,65.70
2022-10-22T23:56:19.086Z,65.50
2022-10-22T23:58:48.894Z,65.70
